createdAt,value
2017-02-19T00:00:54.677Z,1017.80
2017-02-19T00:05:50.998Z,1017.82
2017-02-19T00:10:47.214Z,1017.74
2017-02-19T00:15:43.689Z,1017.75
2017-02-19T00:20:40.162Z,1017.64
2017-02-19T00:25:36.469Z,1017.58
2017-02-19T00:30:32.842Z,1017.50
2017-02-19T00:35:29.276Z,1017.58
2017-02-19T00:40:25.354Z,1017.54
2017-02-19T00:45:21.779Z,1017.43
2017-02-19T00:50:18.308Z,1017.35
2017-02-19T00:55:14.452Z,1017.32
2017-02-19T01:00:11.531Z,1017.28
2017-02-19T01:05:07.221Z,1017.24
2017-02-19T01:10:03.411Z,1017.22
2017-02-19T01:14:59.577Z,1017.20
2017-02-19T01:19:56.154Z,1017.14
2017-02-19T01:24:53.167Z,1017.15
2017-02-19T01:29:49.538Z,1017.11
2017-02-19T01:34:46.388Z,1017.05
2017-02-19T01:39:42.550Z,1016.98
2017-02-19T01:44:39.059Z,1017.02
2017-02-19T01:49:35.289Z,1017.01
2017-02-19T01:54:31.620Z,1016.89
2017-02-19T01:59:27.984Z,1016.71
2017-02-19T02:04:23.830Z,1016.71
2017-02-19T02:09:21.301Z,1016.58
2017-02-19T02:14:17.583Z,1016.54
2017-02-19T02:19:14.006Z,1016.51
2017-02-19T02:24:10.345Z,1016.50
2017-02-19T02:29:06.701Z,1016.34
2017-02-19T02:34:03.109Z,1016.30
2017-02-19T02:38:59.502Z,1016.08
2017-02-19T02:43:55.959Z,1016.12
2017-02-19T02:48:52.215Z,1016.18
2017-02-19T02:53:49.162Z,1016.10
2017-02-19T02:58:45.492Z,1016.06
2017-02-19T03:03:42.018Z,1016.00
2017-02-19T03:08:38.410Z,1015.86
2017-02-19T03:13:34.821Z,1015.83
2017-02-19T03:18:31.210Z,1015.87
2017-02-19T03:23:27.611Z,1015.86
2017-02-19T03:28:24.753Z,1015.72
2017-02-19T03:33:21.584Z,1015.74
2017-02-19T03:38:17.908Z,1015.82
2017-02-19T03:43:14.119Z,1015.74
2017-02-19T03:48:11.753Z,1015.73
2017-02-19T03:53:07.780Z,1015.72
2017-02-19T03:58:04.554Z,1015.54
2017-02-19T04:03:00.996Z,1015.56
2017-02-19T04:07:57.676Z,1015.59
2017-02-19T04:12:54.255Z,1015.52
2017-02-19T04:17:50.657Z,1015.56
2017-02-19T04:22:46.970Z,1015.55
2017-02-19T04:27:43.424Z,1015.52
2017-02-19T04:32:39.601Z,1015.47
2017-02-19T04:37:36.200Z,1015.47
2017-02-19T04:42:32.698Z,1015.53
2017-02-19T04:47:28.930Z,1015.37
2017-02-19T04:52:25.306Z,1015.33
2017-02-19T04:57:21.982Z,1015.36
2017-02-19T05:02:18.430Z,1015.23
2017-02-19T05:07:14.848Z,1015.24
2017-02-19T05:12:11.524Z,1015.10
2017-02-19T05:17:07.741Z,1014.95
2017-02-19T05:22:04.054Z,1014.93
2017-02-19T05:32:03.449Z,1014.88
2017-02-19T05:36:59.644Z,1014.84
2017-02-19T05:41:55.831Z,1014.81
2017-02-19T05:46:52.122Z,1014.79
2017-02-19T05:56:49.933Z,1014.52
2017-02-19T06:01:46.104Z,1014.45
2017-02-19T06:06:42.455Z,1014.46
2017-02-19T06:11:38.950Z,1014.52
2017-02-19T06:16:35.286Z,1014.54
2017-02-19T06:21:32.320Z,1014.52
2017-02-19T06:26:29.841Z,1014.47
2017-02-19T06:31:26.166Z,1014.41
2017-02-19T06:36:22.565Z,1014.48
2017-02-19T06:41:19.137Z,1014.49
2017-02-19T06:46:16.173Z,1014.56
2017-02-19T06:51:12.657Z,1014.70
2017-02-19T06:56:09.623Z,1014.68
2017-02-19T07:01:06.004Z,1014.57
2017-02-19T07:06:03.063Z,1014.60
2017-02-19T07:10:59.430Z,1014.63
2017-02-19T07:15:57.128Z,1014.57
2017-02-19T07:20:53.466Z,1014.57
2017-02-19T07:25:50.036Z,1014.50
2017-02-19T07:30:46.722Z,1014.53
2017-02-19T07:35:43.196Z,1014.50
2017-02-19T07:40:42.235Z,1014.43
2017-02-19T07:45:38.164Z,1014.40
2017-02-19T07:50:34.631Z,1014.46
2017-02-19T07:55:30.917Z,1014.54
2017-02-19T08:00:27.316Z,1014.52
2017-02-19T08:05:23.788Z,1014.47
2017-02-19T08:10:22.891Z,1014.43
2017-02-19T08:15:18.779Z,1014.28
2017-02-19T08:20:15.335Z,1014.26
2017-02-19T08:25:12.322Z,1014.30
2017-02-19T08:30:08.469Z,1014.33
2017-02-19T08:35:05.046Z,1014.29
2017-02-19T08:40:01.686Z,1014.48
2017-02-19T08:44:58.167Z,1014.37
2017-02-19T08:49:55.380Z,1014.22
2017-02-19T08:54:51.504Z,1014.17
2017-02-19T08:59:47.642Z,1014.18
2017-02-19T09:04:44.138Z,1014.26
2017-02-19T09:09:40.854Z,1014.26
2017-02-19T09:14:37.392Z,1014.19
2017-02-19T09:19:33.428Z,1014.12
2017-02-19T09:24:30.201Z,1014.04
2017-02-19T09:29:26.791Z,1014.00
2017-02-19T09:34:23.049Z,1014.00
2017-02-19T09:39:19.628Z,1013.78
2017-02-19T09:44:15.847Z,1013.87
2017-02-19T09:49:12.573Z,1013.93
2017-02-19T09:54:09.555Z,1013.88
2017-02-19T09:59:06.224Z,1013.95
2017-02-19T10:04:02.785Z,1013.85
2017-02-19T10:08:59.240Z,1013.84
2017-02-19T10:13:55.863Z,1013.75
2017-02-19T10:18:53.474Z,1013.89
2017-02-19T10:23:50.166Z,1013.69
2017-02-19T10:28:46.823Z,1013.55
2017-02-19T10:33:43.314Z,1013.65
2017-02-19T10:38:41.916Z,1013.81
2017-02-19T10:43:37.770Z,1013.86
2017-02-19T10:48:35.096Z,1013.79
2017-02-19T10:53:31.374Z,1013.74
2017-02-19T10:58:27.829Z,1013.83
2017-02-19T11:03:24.303Z,1013.84
2017-02-19T11:08:20.389Z,1013.68
2017-02-19T11:13:16.610Z,1013.78
2017-02-19T11:18:13.174Z,1013.78
2017-02-19T11:23:09.658Z,1013.83
2017-02-19T11:28:06.520Z,1013.75
2017-02-19T11:33:03.246Z,1013.74
2017-02-19T11:37:59.844Z,1013.68
2017-02-19T11:42:56.395Z,1013.66
2017-02-19T11:47:52.714Z,1013.49
2017-02-19T11:52:49.103Z,1013.53
2017-02-19T11:57:46.875Z,1013.49
2017-02-19T12:02:43.385Z,1013.51
2017-02-19T12:07:39.875Z,1013.43
2017-02-19T12:12:36.301Z,1013.39
2017-02-19T12:17:32.819Z,1013.35
2017-02-19T12:22:29.318Z,1013.30
2017-02-19T12:27:25.830Z,1013.22
2017-02-19T12:32:22.249Z,1013.30
2017-02-19T12:37:18.506Z,1013.18
2017-02-19T12:42:15.816Z,1013.14
2017-02-19T12:47:13.418Z,1013.13
2017-02-19T12:52:09.462Z,1013.09
2017-02-19T12:57:06.592Z,1013.05
2017-02-19T13:02:02.793Z,1013.08
2017-02-19T13:07:00.273Z,1013.03
2017-02-19T13:11:56.450Z,1012.99
2017-02-19T13:16:52.844Z,1012.98
2017-02-19T13:21:49.452Z,1012.95
2017-02-19T13:26:46.165Z,1012.87
2017-02-19T13:31:42.630Z,1012.90
2017-02-19T13:36:40.165Z,1012.88
2017-02-19T13:41:36.346Z,1012.86
2017-02-19T13:46:32.319Z,1012.73
2017-02-19T13:51:28.695Z,1012.67
2017-02-19T13:56:25.150Z,1012.75
2017-02-19T14:01:21.905Z,1012.74
2017-02-19T14:06:18.673Z,1012.72
2017-02-19T14:11:15.231Z,1012.72
2017-02-19T14:16:11.660Z,1012.68
2017-02-19T14:21:08.186Z,1012.70
2017-02-19T14:26:04.540Z,1012.76
2017-02-19T14:31:01.870Z,1012.77
2017-02-19T14:35:57.928Z,1012.80
2017-02-19T14:40:53.974Z,1012.83
2017-02-19T14:45:50.292Z,1012.76
2017-02-19T14:50:46.682Z,1012.91
2017-02-19T14:55:43.423Z,1012.96
2017-02-19T15:00:39.726Z,1012.90
2017-02-19T15:05:36.383Z,1012.83
2017-02-19T15:10:32.699Z,1012.88
2017-02-19T15:15:29.122Z,1012.83
2017-02-19T15:20:26.335Z,1012.80
2017-02-19T15:25:22.637Z,1012.83
2017-02-19T15:30:19.084Z,1012.68
2017-02-19T15:35:15.580Z,1012.65
2017-02-19T15:40:11.961Z,1012.60
2017-02-19T15:45:08.328Z,1012.67
2017-02-19T15:50:04.696Z,1012.72
2017-02-19T15:55:01.377Z,1012.74
2017-02-19T15:59:57.894Z,1012.81
2017-02-19T16:04:54.240Z,1012.90
2017-02-19T16:09:50.731Z,1013.00
2017-02-19T16:14:47.298Z,1012.90
2017-02-19T16:19:44.182Z,1012.92
2017-02-19T16:24:40.651Z,1013.09
2017-02-19T16:29:37.029Z,1013.03
2017-02-19T16:34:32.982Z,1013.21
2017-02-19T16:39:30.000Z,1013.25
2017-02-19T16:44:26.804Z,1013.40
2017-02-19T16:49:24.330Z,1013.38
2017-02-19T16:54:20.500Z,1013.45
2017-02-19T16:59:17.942Z,1013.32
2017-02-19T17:04:13.991Z,1013.34
2017-02-19T17:09:10.856Z,1013.36
2017-02-19T17:14:07.184Z,1013.32
2017-02-19T17:19:03.937Z,1013.20
2017-02-19T17:24:00.347Z,1013.19
2017-02-19T17:28:57.202Z,1013.21
2017-02-19T17:33:53.651Z,1013.29
2017-02-19T17:38:50.626Z,1013.35
2017-02-19T17:43:46.941Z,1013.33
2017-02-19T17:48:43.162Z,1013.42
2017-02-19T17:53:39.444Z,1013.46
2017-02-19T17:58:35.807Z,1013.45
2017-02-19T18:03:32.260Z,1013.48
2017-02-19T18:08:28.971Z,1013.49
2017-02-19T18:13:25.313Z,1013.59
2017-02-19T18:18:21.862Z,1013.57
2017-02-19T18:23:17.959Z,1013.63
2017-02-19T18:28:14.294Z,1013.53
2017-02-19T18:33:12.451Z,1013.51
2017-02-19T18:38:08.493Z,1013.54
2017-02-19T18:43:05.769Z,1013.40
2017-02-19T18:48:01.963Z,1013.43
2017-02-19T18:52:59.125Z,1013.44
2017-02-19T18:57:55.251Z,1013.44
2017-02-19T19:02:52.049Z,1013.56
2017-02-19T19:07:48.516Z,1013.55
2017-02-19T19:12:44.554Z,1013.78
2017-02-19T19:17:40.994Z,1013.77
2017-02-19T19:22:37.553Z,1013.80
2017-02-19T19:27:34.225Z,1013.80
2017-02-19T19:32:30.701Z,1013.82
2017-02-19T19:37:27.086Z,1013.91
2017-02-19T19:42:23.862Z,1013.94
2017-02-19T19:47:20.328Z,1014.07
2017-02-19T19:52:16.808Z,1014.11
2017-02-19T19:57:13.913Z,1014.03
2017-02-19T20:02:10.373Z,1014.05
2017-02-19T20:07:06.906Z,1014.10
2017-02-19T20:12:03.277Z,1014.08
2017-02-19T20:16:59.669Z,1013.99
2017-02-19T20:21:56.155Z,1014.05
2017-02-19T20:26:52.769Z,1014.00
2017-02-19T20:31:49.000Z,1014.03
2017-02-19T20:36:45.378Z,1013.99
2017-02-19T20:41:42.117Z,1013.93
2017-02-19T20:46:38.563Z,1013.95
2017-02-19T20:51:35.026Z,1013.84
2017-02-19T20:56:31.420Z,1013.80
2017-02-19T21:01:27.701Z,1013.99
2017-02-19T21:06:24.105Z,1013.90
2017-02-19T21:11:20.741Z,1013.90
2017-02-19T21:16:17.569Z,1013.98
2017-02-19T21:21:15.079Z,1013.82
2017-02-19T21:26:11.126Z,1013.78
2017-02-19T21:31:07.680Z,1013.73
2017-02-19T21:36:03.989Z,1013.67
2017-02-19T21:41:00.350Z,1013.71
2017-02-19T21:45:56.891Z,1013.63
2017-02-19T21:50:53.157Z,1013.62
2017-02-19T21:55:50.111Z,1013.68
2017-02-19T22:00:46.470Z,1013.66
2017-02-19T22:05:42.856Z,1013.67
2017-02-19T22:10:39.483Z,1013.67
2017-02-19T22:15:36.051Z,1013.68
2017-02-19T22:20:33.175Z,1013.63
2017-02-19T22:25:29.428Z,1013.60
2017-02-19T22:30:25.836Z,1013.58
2017-02-19T22:35:22.278Z,1013.61
2017-02-19T22:40:18.499Z,1013.62
2017-02-19T22:45:14.925Z,1013.61
2017-02-19T22:50:11.429Z,1013.70
2017-02-19T22:55:07.917Z,1013.77
2017-02-19T23:00:06.858Z,1013.76
2017-02-19T23:05:02.688Z,1013.74
2017-02-19T23:09:59.241Z,1013.79
2017-02-19T23:14:55.673Z,1013.76
2017-02-19T23:19:52.252Z,1013.70
2017-02-19T23:24:48.609Z,1013.72
2017-02-19T23:29:45.154Z,1013.71
2017-02-19T23:34:41.510Z,1013.69
2017-02-19T23:39:38.122Z,1013.69
2017-02-19T23:44:36.924Z,1013.71
2017-02-19T23:49:32.602Z,1013.64
2017-02-19T23:54:29.592Z,1013.60
2017-02-19T23:59:26.500Z,1013.61
